Weather forecast for Bozoy (Бозой)

Russia, 588 m
N53.011, E104.880


Sounding

Red line — air temperature ˚C.
Blue line — thermal bubble temperature ˚C.
Green line — dew point temperature ˚C.
Wind speed is in meters per second.

Table forecast

GFS 0.25˚ model

temp. wind gust humid. clouds prec. press. hpbl
Thu28 00:00 4 330.0 nnw 1 1 57 100 0.0 1018 10
03:00 3 11.0 n 2 2 61 56 0.0 1019 15
06:00 2 34.0 ne 4 9 83 51 0.0 1021 227
09:00 1 346.0 nnw 3 7 82 99 0.0 1024 195
12:00 0 14.0 nne 4 8 86 100 0.3 1026 495
15:00 1 2.0 n 5 6 74 100 1.1 1026 779
18:00 0 351.0 n 4 6 70 100 0.0 1029 583
21:00 -2 325.0 nw 3 3 68 81 0.0 1031 41
 
Fri29 00:00 -4 348.0 nnw 2 2 57 18 0.0 1033 13
03:00 -4 351.0 n 1 1 54 92 0.0 1034 10
06:00 -5 19.0 nne 1 1 51 100 0.0 1035 10
09:00 -5 54.0 ne 2 2 53 51 0.0 1036 14
12:00 -1 91.0 e 3 4 41 5 0.0 1035 387
15:00 1 94.0 e 3 4 36 0 0.0 1033 577
18:00 -1 66.0 ene 3 6 47 0 0.0 1032 107
21:00 -4 74.0 ene 2 2 52 0 0.0 1033 16
 
Sat30 00:00 -4 75.0 ene 2 2 55 4 0.0 1033 13
03:00 -4 70.0 ene 2 2 58 26 0.0 1032 14
06:00 -5 74.0 ene 2 2 61 43 0.0 1032 15
09:00 -5 76.0 ene 2 2 68 88 0.0 1033 15
12:00 -0 118.0 ese 2 3 59 5 0.0 1032 264
15:00 4 124.0 se 2 3 50 5 0.0 1029 529
18:00 2 111.0 ese 2 2 61 5 0.0 1028 11
21:00 -2 90.0 e 2 2 70 40 0.0 1029 11
 
Sun31 00:00 -2 72.0 ene 2 2 72 78 0.0 1028 13
03:00 -3 75.0 ene 2 2 73 12 0.0 1027 13
06:00 -3 77.0 ene 2 2 75 57 0.0 1026 11
09:00 -3 68.0 ene 2 2 78 99 0.0 1026 11
12:00 1 106.0 ese 1 2 66 100 0.0 1025 217
15:00 3 257.0 wsw 1 1 61 100 0.0 1023 393
18:00 1 128.0 se 0 1 72 100 0.0 1022 10
21:00 -1 94.0 e 1 1 81 100 0.0 1022 10
 
Mon01 00:00 -2 78.0 ene 1 1 84 9 0.0 1020 10
03:00 -2 80.0 e 2 2 86 32 0.0 1017 11
06:00 -3 83.0 e 2 2 86 5 0.0 1015 14
09:00 -3 82.0 e 2 2 87 48 0.0 1013 16
12:00 1 118.0 ese 2 4 68 82 0.0 1010 257
15:00 4 309.0 nw 2 2 57 100 0.0 1009 431
18:00 2 310.0 nw 2 2 68 100 0.0 1012 15
21:00 0 313.0 nw 4 8 82 100 0.1 1015 278
 

0.008 s